sensor_id;sensor_type;location;lat;lon;timestamp;P1;durP1;ratioP1;P2;durP2;ratioP2
15297;SDS011;7750;48.796;9.026;2023-02-28T00:02:47;5.07;;;3.03;;
15297;SDS011;7750;48.796;9.026;2023-02-28T00:07:49;9.33;;;3.70;;
15297;SDS011;7750;48.796;9.026;2023-02-28T00:12:51;4.50;;;3.37;;
15297;SDS011;7750;48.796;9.026;2023-02-28T00:17:53;4.87;;;3.50;;
15297;SDS011;7750;48.796;9.026;2023-02-28T00:22:54;3.27;;;2.93;;
15297;SDS011;7750;48.796;9.026;2023-02-28T00:27:55;5.80;;;4.43;;
15297;SDS011;7750;48.796;9.026;2023-02-28T00:32:55;5.80;;;3.60;;
15297;SDS011;7750;48.796;9.026;2023-02-28T00:37:56;4.53;;;3.80;;
15297;SDS011;7750;48.796;9.026;2023-02-28T00:42:56;6.53;;;3.50;;
15297;SDS011;7750;48.796;9.026;2023-02-28T00:47:57;4.30;;;3.30;;
15297;SDS011;7750;48.796;9.026;2023-02-28T00:52:58;5.83;;;4.00;;
15297;SDS011;7750;48.796;9.026;2023-02-28T00:57:59;5.30;;;3.17;;
15297;SDS011;7750;48.796;9.026;2023-02-28T01:02:59;6.53;;;3.50;;
15297;SDS011;7750;48.796;9.026;2023-02-28T01:08:00;5.97;;;4.10;;
15297;SDS011;7750;48.796;9.026;2023-02-28T01:13:01;4.60;;;3.60;;
15297;SDS011;7750;48.796;9.026;2023-02-28T01:18:01;4.43;;;3.77;;
15297;SDS011;7750;48.796;9.026;2023-02-28T01:23:02;5.60;;;4.33;;
15297;SDS011;7750;48.796;9.026;2023-02-28T01:28:03;5.47;;;3.83;;
15297;SDS011;7750;48.796;9.026;2023-02-28T01:33:04;6.00;;;4.07;;
15297;SDS011;7750;48.796;9.026;2023-02-28T01:43:19;7.43;;;4.10;;
15297;SDS011;7750;48.796;9.026;2023-02-28T01:48:31;6.60;;;4.67;;
15297;SDS011;7750;48.796;9.026;2023-02-28T01:53:36;7.73;;;4.70;;
15297;SDS011;7750;48.796;9.026;2023-02-28T01:58:39;5.20;;;4.03;;
15297;SDS011;7750;48.796;9.026;2023-02-28T02:03:40;8.37;;;4.27;;
15297;SDS011;7750;48.796;9.026;2023-02-28T02:08:41;4.60;;;3.80;;
15297;SDS011;7750;48.796;9.026;2023-02-28T02:14:01;6.13;;;3.73;;
15297;SDS011;7750;48.796;9.026;2023-02-28T02:29:40;6.17;;;4.33;;
15297;SDS011;7750;48.796;9.026;2023-02-28T02:50:37;6.67;;;4.50;;
15297;SDS011;7750;48.796;9.026;2023-02-28T02:55:43;7.70;;;5.23;;
15297;SDS011;7750;48.796;9.026;2023-02-28T03:00:48;6.43;;;4.53;;
15297;SDS011;7750;48.796;9.026;2023-02-28T03:05:53;6.43;;;4.40;;
15297;SDS011;7750;48.796;9.026;2023-02-28T03:11:02;6.40;;;4.47;;
15297;SDS011;7750;48.796;9.026;2023-02-28T03:21:34;5.57;;;4.53;;
15297;SDS011;7750;48.796;9.026;2023-02-28T03:26:39;9.10;;;5.40;;
15297;SDS011;7750;48.796;9.026;2023-02-28T03:31:47;6.03;;;5.13;;
15297;SDS011;7750;48.796;9.026;2023-02-28T03:36:57;7.57;;;4.97;;
15297;SDS011;7750;48.796;9.026;2023-02-28T03:42:05;5.60;;;4.37;;
15297;SDS011;7750;48.796;9.026;2023-02-28T03:47:13;7.53;;;5.20;;
15297;SDS011;7750;48.796;9.026;2023-02-28T03:52:23;9.53;;;5.73;;
15297;SDS011;7750;48.796;9.026;2023-02-28T03:57:37;5.60;;;4.90;;
15297;SDS011;7750;48.796;9.026;2023-02-28T04:02:50;6.20;;;4.80;;
15297;SDS011;7750;48.796;9.026;2023-02-28T04:07:52;6.50;;;5.23;;
15297;SDS011;7750;48.796;9.026;2023-02-28T04:12:54;9.03;;;5.13;;
15297;SDS011;7750;48.796;9.026;2023-02-28T04:17:54;7.30;;;5.23;;
15297;SDS011;7750;48.796;9.026;2023-02-28T04:22:55;12.03;;;5.33;;
15297;SDS011;7750;48.796;9.026;2023-02-28T04:27:55;8.50;;;5.83;;
15297;SDS011;7750;48.796;9.026;2023-02-28T04:32:56;7.20;;;5.73;;
15297;SDS011;7750;48.796;9.026;2023-02-28T04:37:57;9.13;;;6.17;;
15297;SDS011;7750;48.796;9.026;2023-02-28T04:42:57;7.07;;;5.50;;
15297;SDS011;7750;48.796;9.026;2023-02-28T04:47:58;7.33;;;5.27;;
15297;SDS011;7750;48.796;9.026;2023-02-28T04:52:59;6.83;;;5.73;;
15297;SDS011;7750;48.796;9.026;2023-02-28T04:57:59;8.20;;;5.70;;
15297;SDS011;7750;48.796;9.026;2023-02-28T05:03:00;8.77;;;6.17;;
15297;SDS011;7750;48.796;9.026;2023-02-28T05:08:01;8.30;;;6.07;;
15297;SDS011;7750;48.796;9.026;2023-02-28T05:13:04;8.30;;;7.30;;
15297;SDS011;7750;48.796;9.026;2023-02-28T05:18:04;9.43;;;6.10;;
15297;SDS011;7750;48.796;9.026;2023-02-28T05:23:05;7.50;;;6.53;;
15297;SDS011;7750;48.796;9.026;2023-02-28T05:28:06;8.57;;;6.50;;
15297;SDS011;7750;48.796;9.026;2023-02-28T05:33:09;7.43;;;6.63;;
15297;SDS011;7750;48.796;9.026;2023-02-28T05:38:11;8.07;;;6.60;;
15297;SDS011;7750;48.796;9.026;2023-02-28T05:43:12;8.10;;;6.53;;
15297;SDS011;7750;48.796;9.026;2023-02-28T05:48:12;7.80;;;6.77;;
15297;SDS011;7750;48.796;9.026;2023-02-28T05:53:13;8.10;;;6.70;;
15297;SDS011;7750;48.796;9.026;2023-02-28T05:58:14;7.37;;;6.30;;
15297;SDS011;7750;48.796;9.026;2023-02-28T06:03:14;7.17;;;6.00;;
15297;SDS011;7750;48.796;9.026;2023-02-28T06:08:15;8.67;;;6.50;;
15297;SDS011;7750;48.796;9.026;2023-02-28T06:13:16;14.17;;;6.60;;
15297;SDS011;7750;48.796;9.026;2023-02-28T06:18:16;9.90;;;8.10;;
15297;SDS011;7750;48.796;9.026;2023-02-28T06:23:17;9.80;;;7.43;;
15297;SDS011;7750;48.796;9.026;2023-02-28T06:28:17;14.07;;;8.33;;
15297;SDS011;7750;48.796;9.026;2023-02-28T06:33:18;10.17;;;7.73;;
15297;SDS011;7750;48.796;9.026;2023-02-28T06:38:19;12.37;;;8.00;;
15297;SDS011;7750;48.796;9.026;2023-02-28T06:43:19;8.13;;;6.80;;
15297;SDS011;7750;48.796;9.026;2023-02-28T06:48:20;10.20;;;7.63;;
15297;SDS011;7750;48.796;9.026;2023-02-28T06:53:21;10.67;;;7.50;;
15297;SDS011;7750;48.796;9.026;2023-02-28T06:58:22;13.27;;;7.53;;
15297;SDS011;7750;48.796;9.026;2023-02-28T07:03:22;9.40;;;7.80;;
15297;SDS011;7750;48.796;9.026;2023-02-28T07:08:24;9.70;;;7.77;;
15297;SDS011;7750;48.796;9.026;2023-02-28T07:13:25;10.07;;;7.20;;
15297;SDS011;7750;48.796;9.026;2023-02-28T07:18:26;11.17;;;8.17;;
15297;SDS011;7750;48.796;9.026;2023-02-28T07:23:27;11.80;;;8.53;;
15297;SDS011;7750;48.796;9.026;2023-02-28T07:28:28;11.70;;;8.60;;
15297;SDS011;7750;48.796;9.026;2023-02-28T07:33:28;12.50;;;8.30;;
15297;SDS011;7750;48.796;9.026;2023-02-28T07:38:29;14.43;;;7.80;;
15297;SDS011;7750;48.796;9.026;2023-02-28T07:43:33;10.10;;;8.13;;
15297;SDS011;7750;48.796;9.026;2023-02-28T07:48:34;10.50;;;7.90;;
15297;SDS011;7750;48.796;9.026;2023-02-28T07:53:35;11.33;;;8.30;;
15297;SDS011;7750;48.796;9.026;2023-02-28T07:58:36;12.37;;;8.50;;
15297;SDS011;7750;48.796;9.026;2023-02-28T08:03:37;15.23;;;9.10;;
15297;SDS011;7750;48.796;9.026;2023-02-28T08:08:38;16.70;;;8.50;;
15297;SDS011;7750;48.796;9.026;2023-02-28T08:13:38;12.63;;;8.57;;
15297;SDS011;7750;48.796;9.026;2023-02-28T08:18:39;11.57;;;8.37;;
15297;SDS011;7750;48.796;9.026;2023-02-28T08:23:40;10.37;;;9.23;;
15297;SDS011;7750;48.796;9.026;2023-02-28T08:28:40;13.87;;;8.70;;
15297;SDS011;7750;48.796;9.026;2023-02-28T08:33:41;13.00;;;8.73;;
15297;SDS011;7750;48.796;9.026;2023-02-28T08:38:42;10.37;;;8.50;;
15297;SDS011;7750;48.796;9.026;2023-02-28T08:43:43;11.07;;;8.07;;
15297;SDS011;7750;48.796;9.026;2023-02-28T08:48:44;12.03;;;9.93;;
15297;SDS011;7750;48.796;9.026;2023-02-28T08:53:45;12.90;;;8.97;;
15297;SDS011;7750;48.796;9.026;2023-02-28T08:58:46;10.77;;;8.43;;
15297;SDS011;7750;48.796;9.026;2023-02-28T09:03:49;11.17;;;9.10;;
15297;SDS011;7750;48.796;9.026;2023-02-28T09:08:50;12.70;;;10.00;;
15297;SDS011;7750;48.796;9.026;2023-02-28T09:13:51;12.53;;;9.50;;
15297;SDS011;7750;48.796;9.026;2023-02-28T09:18:52;15.00;;;10.73;;
15297;SDS011;7750;48.796;9.026;2023-02-28T09:23:52;14.03;;;9.60;;
15297;SDS011;7750;48.796;9.026;2023-02-28T09:28:53;20.13;;;11.07;;
15297;SDS011;7750;48.796;9.026;2023-02-28T09:33:55;12.57;;;9.83;;
15297;SDS011;7750;48.796;9.026;2023-02-28T09:38:57;14.67;;;10.60;;
15297;SDS011;7750;48.796;9.026;2023-02-28T09:43:59;14.73;;;10.10;;
15297;SDS011;7750;48.796;9.026;2023-02-28T09:49:05;12.00;;;9.43;;
15297;SDS011;7750;48.796;9.026;2023-02-28T09:54:13;13.63;;;9.93;;
15297;SDS011;7750;48.796;9.026;2023-02-28T09:59:24;13.63;;;10.70;;
15297;SDS011;7750;48.796;9.026;2023-02-28T10:04:41;14.33;;;10.17;;
15297;SDS011;7750;48.796;9.026;2023-02-28T10:09:52;14.60;;;10.90;;
15297;SDS011;7750;48.796;9.026;2023-02-28T10:14:57;19.00;;;11.30;;
15297;SDS011;7750;48.796;9.026;2023-02-28T10:20:19;13.97;;;10.63;;
15297;SDS011;7750;48.796;9.026;2023-02-28T10:25:26;19.40;;;11.00;;
15297;SDS011;7750;48.796;9.026;2023-02-28T10:30:28;15.23;;;10.70;;
15297;SDS011;7750;48.796;9.026;2023-02-28T10:35:43;11.77;;;10.13;;
15297;SDS011;7750;48.796;9.026;2023-02-28T10:40:44;14.03;;;10.17;;
15297;SDS011;7750;48.796;9.026;2023-02-28T10:45:58;14.93;;;12.10;;
15297;SDS011;7750;48.796;9.026;2023-02-28T10:51:03;15.53;;;11.30;;
15297;SDS011;7750;48.796;9.026;2023-02-28T11:01:18;15.00;;;11.80;;
15297;SDS011;7750;48.796;9.026;2023-02-28T11:06:32;13.20;;;11.17;;
15297;SDS011;7750;48.796;9.026;2023-02-28T11:11:42;15.70;;;10.80;;
15297;SDS011;7750;48.796;9.026;2023-02-28T11:16:45;14.23;;;11.40;;
15297;SDS011;7750;48.796;9.026;2023-02-28T11:21:53;14.10;;;11.30;;
15297;SDS011;7750;48.796;9.026;2023-02-28T11:26:57;16.43;;;12.13;;
15297;SDS011;7750;48.796;9.026;2023-02-28T11:37:30;13.63;;;11.00;;
15297;SDS011;7750;48.796;9.026;2023-02-28T11:47:45;15.23;;;11.60;;
15297;SDS011;7750;48.796;9.026;2023-02-28T11:52:54;12.03;;;10.27;;
15297;SDS011;7750;48.796;9.026;2023-02-28T12:19:17;14.60;;;11.10;;
15297;SDS011;7750;48.796;9.026;2023-02-28T12:30:04;13.50;;;10.07;;
15297;SDS011;7750;48.796;9.026;2023-02-28T12:35:22;17.20;;;11.37;;
15297;SDS011;7750;48.796;9.026;2023-02-28T12:40:38;14.40;;;10.77;;
15297;SDS011;7750;48.796;9.026;2023-02-28T12:45:56;12.20;;;9.87;;
15297;SDS011;7750;48.796;9.026;2023-02-28T12:51:05;14.23;;;9.57;;
15297;SDS011;7750;48.796;9.026;2023-02-28T13:12:33;12.90;;;9.67;;
15297;SDS011;7750;48.796;9.026;2023-02-28T13:17:35;11.80;;;8.70;;
15297;SDS011;7750;48.796;9.026;2023-02-28T13:22:49;13.60;;;9.57;;
15297;SDS011;7750;48.796;9.026;2023-02-28T13:27:53;13.10;;;10.47;;
15297;SDS011;7750;48.796;9.026;2023-02-28T13:38:23;11.37;;;9.23;;
15297;SDS011;7750;48.796;9.026;2023-02-28T13:49:46;11.83;;;8.93;;
15297;SDS011;7750;48.796;9.026;2023-02-28T14:33:20;11.30;;;8.80;;
15297;SDS011;7750;48.796;9.026;2023-02-28T14:38:31;10.93;;;9.23;;
15297;SDS011;7750;48.796;9.026;2023-02-28T14:43:35;12.20;;;8.57;;
15297;SDS011;7750;48.796;9.026;2023-02-28T14:53:40;12.90;;;9.00;;
15297;SDS011;7750;48.796;9.026;2023-02-28T15:09:46;13.60;;;9.13;;
15297;SDS011;7750;48.796;9.026;2023-02-28T17:20:02;15.50;;;12.03;;
15297;SDS011;7750;48.796;9.026;2023-02-28T17:56:23;13.53;;;10.23;;
15297;SDS011;7750;48.796;9.026;2023-02-28T18:01:25;16.25;;;11.48;;
15297;SDS011;7750;48.796;9.026;2023-02-28T18:11:46;17.00;;;11.30;;
15297;SDS011;7750;48.796;9.026;2023-02-28T18:16:49;14.70;;;11.30;;
15297;SDS011;7750;48.796;9.026;2023-02-28T18:21:51;16.90;;;12.60;;
15297;SDS011;7750;48.796;9.026;2023-02-28T18:26:52;14.10;;;10.77;;
15297;SDS011;7750;48.796;9.026;2023-02-28T18:31:54;13.50;;;11.07;;
15297;SDS011;7750;48.796;9.026;2023-02-28T18:36:55;16.10;;;12.97;;
15297;SDS011;7750;48.796;9.026;2023-02-28T18:41:57;16.27;;;11.40;;
15297;SDS011;7750;48.796;9.026;2023-02-28T18:46:57;15.47;;;12.77;;
15297;SDS011;7750;48.796;9.026;2023-02-28T18:51:58;14.43;;;11.57;;
15297;SDS011;7750;48.796;9.026;2023-02-28T18:56:59;16.37;;;12.97;;
15297;SDS011;7750;48.796;9.026;2023-02-28T19:01:59;18.10;;;12.80;;
15297;SDS011;7750;48.796;9.026;2023-02-28T19:07:00;16.47;;;12.17;;
15297;SDS011;7750;48.796;9.026;2023-02-28T19:12:01;15.47;;;12.20;;
15297;SDS011;7750;48.796;9.026;2023-02-28T19:17:02;17.07;;;13.87;;
15297;SDS011;7750;48.796;9.026;2023-02-28T19:22:03;20.57;;;15.20;;
15297;SDS011;7750;48.796;9.026;2023-02-28T19:27:03;19.00;;;13.30;;
15297;SDS011;7750;48.796;9.026;2023-02-28T19:32:04;18.83;;;14.03;;
15297;SDS011;7750;48.796;9.026;2023-02-28T19:37:04;19.77;;;14.27;;
15297;SDS011;7750;48.796;9.026;2023-02-28T19:42:09;19.17;;;14.80;;
15297;SDS011;7750;48.796;9.026;2023-02-28T19:47:12;20.97;;;14.67;;
15297;SDS011;7750;48.796;9.026;2023-02-28T19:52:13;19.77;;;14.00;;
15297;SDS011;7750;48.796;9.026;2023-02-28T19:57:14;21.67;;;15.53;;
15297;SDS011;7750;48.796;9.026;2023-02-28T20:02:15;17.53;;;14.00;;
15297;SDS011;7750;48.796;9.026;2023-02-28T20:07:17;19.90;;;15.30;;
15297;SDS011;7750;48.796;9.026;2023-02-28T20:12:21;18.40;;;14.10;;
15297;SDS011;7750;48.796;9.026;2023-02-28T20:17:23;23.43;;;14.67;;
15297;SDS011;7750;48.796;9.026;2023-02-28T20:22:23;23.13;;;14.10;;
15297;SDS011;7750;48.796;9.026;2023-02-28T20:27:24;17.40;;;13.90;;
15297;SDS011;7750;48.796;9.026;2023-02-28T20:32:25;19.10;;;15.23;;
15297;SDS011;7750;48.796;9.026;2023-02-28T20:37:26;20.63;;;15.20;;
15297;SDS011;7750;48.796;9.026;2023-02-28T20:42:27;17.93;;;14.30;;
15297;SDS011;7750;48.796;9.026;2023-02-28T20:47:27;18.87;;;14.63;;
15297;SDS011;7750;48.796;9.026;2023-02-28T20:52:28;19.77;;;14.97;;
15297;SDS011;7750;48.796;9.026;2023-02-28T20:57:29;21.87;;;16.03;;
15297;SDS011;7750;48.796;9.026;2023-02-28T21:02:29;18.73;;;14.27;;
15297;SDS011;7750;48.796;9.026;2023-02-28T21:07:30;19.90;;;13.93;;
15297;SDS011;7750;48.796;9.026;2023-02-28T21:12:31;18.80;;;13.47;;
15297;SDS011;7750;48.796;9.026;2023-02-28T21:17:31;20.77;;;15.23;;
15297;SDS011;7750;48.796;9.026;2023-02-28T21:22:32;19.63;;;14.87;;
15297;SDS011;7750;48.796;9.026;2023-02-28T21:27:32;20.70;;;14.10;;
15297;SDS011;7750;48.796;9.026;2023-02-28T21:32:34;25.80;;;15.23;;
15297;SDS011;7750;48.796;9.026;2023-02-28T21:37:36;20.10;;;14.53;;
15297;SDS011;7750;48.796;9.026;2023-02-28T21:42:37;19.07;;;14.80;;
15297;SDS011;7750;48.796;9.026;2023-02-28T21:47:38;20.57;;;14.50;;
15297;SDS011;7750;48.796;9.026;2023-02-28T21:52:38;21.47;;;13.70;;
15297;SDS011;7750;48.796;9.026;2023-02-28T21:57:40;20.67;;;16.60;;
15297;SDS011;7750;48.796;9.026;2023-02-28T22:02:41;21.50;;;13.90;;
15297;SDS011;7750;48.796;9.026;2023-02-28T22:07:43;18.33;;;13.10;;
15297;SDS011;7750;48.796;9.026;2023-02-28T22:12:43;17.77;;;13.73;;
15297;SDS011;7750;48.796;9.026;2023-02-28T22:17:44;21.47;;;14.17;;
15297;SDS011;7750;48.796;9.026;2023-02-28T22:22:45;22.00;;;15.40;;
15297;SDS011;7750;48.796;9.026;2023-02-28T22:27:45;20.17;;;14.40;;
15297;SDS011;7750;48.796;9.026;2023-02-28T22:32:46;21.27;;;14.37;;
15297;SDS011;7750;48.796;9.026;2023-02-28T22:37:47;21.40;;;13.93;;
15297;SDS011;7750;48.796;9.026;2023-02-28T22:42:47;18.83;;;14.47;;
15297;SDS011;7750;48.796;9.026;2023-02-28T22:47:48;20.17;;;14.00;;
15297;SDS011;7750;48.796;9.026;2023-02-28T22:52:52;19.67;;;14.53;;
15297;SDS011;7750;48.796;9.026;2023-02-28T22:57:53;19.93;;;13.90;;
15297;SDS011;7750;48.796;9.026;2023-02-28T23:02:53;22.83;;;14.73;;
15297;SDS011;7750;48.796;9.026;2023-02-28T23:07:54;22.93;;;14.30;;
15297;SDS011;7750;48.796;9.026;2023-02-28T23:12:55;19.33;;;14.30;;
15297;SDS011;7750;48.796;9.026;2023-02-28T23:17:55;19.97;;;14.53;;
15297;SDS011;7750;48.796;9.026;2023-02-28T23:22:56;22.37;;;13.97;;
15297;SDS011;7750;48.796;9.026;2023-02-28T23:27:57;19.50;;;13.97;;
15297;SDS011;7750;48.796;9.026;2023-02-28T23:32:57;16.83;;;13.30;;
15297;SDS011;7750;48.796;9.026;2023-02-28T23:37:58;19.17;;;14.47;;
15297;SDS011;7750;48.796;9.026;2023-02-28T23:42:59;21.97;;;14.50;;
15297;SDS011;7750;48.796;9.026;2023-02-28T23:48:00;19.07;;;14.07;;
15297;SDS011;7750;48.796;9.026;2023-02-28T23:53:00;20.90;;;15.43;;
15297;SDS011;7750;48.796;9.026;2023-02-28T23:58:01;18.30;;;13.47;;
